Current Conditions
Light Rain
Showers



Pressure
30.08 (inHG) - 1018.62 (mb)
Visibility

8.0 (mimiles) - 12.9 (km)
   Temperature
64  °F
18°C
63  °F
Dewpoint
94  %
 Humidity
   Wind Speed
10  mph
9  kts
16  km/h
4.5  m/s
   Wind Direction
 200°
South South
West
   Airport Data
KORD
Location Chicago O'hare International 40 mi (64.36 km)
Metar :KORD 151151Z 20009KT 8SM -RA FEW010 SCT060 BKN100 OVC130 18/17 A3008 RMK AO2 SLP183 P0009 60041 70047 T01780172 10217 20172 58002 $
Sun 15th September 06:51 am
   Raw Metar Info
Raw METAR is the most common format in the world for the transmission of observational weather data. It is highly standardized through the International Civil Aviation Organization (ICAO), which allows it to be understood throughout most of the world.
   API Info
Data Provided by
https://www.checkwx.com/weather/KORD
   © Info
CSS/SVG/PHP scripts were developed by weather34.com for use in the weather34 template © 2015-2019

Guide Info provided by Metar-Wikipedia